createdAt,value
2023-05-04T00:00:49.849Z,64.54
2023-05-04T00:02:53.031Z,64.30
2023-05-04T00:04:55.904Z,64.38
2023-05-04T00:06:58.665Z,64.74
2023-05-04T00:09:02.565Z,64.79
2023-05-04T00:11:05.569Z,65.17
2023-05-04T00:13:08.277Z,65.31
2023-05-04T00:15:11.568Z,65.95
2023-05-04T00:17:14.238Z,66.70
2023-05-04T00:19:19.268Z,65.80
2023-05-04T00:21:21.760Z,66.58
2023-05-04T00:23:24.329Z,66.91
2023-05-04T00:25:26.785Z,66.27
2023-05-04T00:27:29.304Z,66.16
2023-05-04T00:29:31.682Z,65.89
2023-05-04T00:31:34.290Z,65.01
2023-05-04T00:33:37.698Z,65.01
2023-05-04T00:35:40.660Z,65.18
2023-05-04T00:37:44.454Z,65.50
2023-05-04T00:39:47.836Z,64.92
2023-05-04T00:41:50.277Z,65.01
2023-05-04T00:43:53.242Z,64.77
2023-05-04T00:45:55.751Z,65.33
2023-05-04T00:47:59.511Z,65.25
2023-05-04T00:50:02.743Z,66.20
2023-05-04T00:52:06.567Z,65.85
2023-05-04T00:54:09.440Z,65.60
2023-05-04T00:56:12.081Z,65.57
2023-05-04T00:58:15.178Z,65.66
2023-05-04T01:00:18.094Z,65.41
2023-05-04T01:02:21.030Z,64.53
2023-05-04T01:04:23.666Z,65.41
2023-05-04T01:06:41.861Z,65.46
2023-05-04T01:09:21.598Z,64.75
2023-05-04T01:11:32.687Z,65.76
2023-05-04T01:13:36.203Z,66.69
2023-05-04T01:15:40.106Z,66.67
2023-05-04T01:17:42.504Z,66.35
2023-05-04T01:19:45.040Z,65.90
2023-05-04T01:21:48.066Z,65.99
2023-05-04T01:23:50.766Z,65.87
2023-05-04T01:26:06.836Z,65.97
2023-05-04T01:28:18.604Z,66.14
2023-05-04T01:30:26.428Z,66.10
2023-05-04T01:32:31.712Z,65.94
2023-05-04T01:34:38.152Z,66.10
2023-05-04T01:36:41.581Z,66.15
2023-05-04T01:38:48.888Z,66.83
2023-05-04T01:40:51.751Z,67.18
2023-05-04T01:42:53.965Z,66.39
2023-05-04T01:44:57.629Z,67.02
2023-05-04T01:47:00.004Z,67.74
2023-05-04T01:49:02.290Z,68.65
2023-05-04T01:51:05.111Z,68.33
2023-05-04T01:53:07.849Z,67.72
2023-05-04T01:55:10.948Z,67.32
2023-05-04T01:57:13.625Z,67.30
2023-05-04T01:59:16.090Z,66.88
2023-05-04T02:01:18.473Z,67.29
2023-05-04T02:03:21.697Z,67.65
2023-05-04T02:05:24.556Z,69.07
2023-05-04T02:07:27.242Z,69.07
2023-05-04T02:09:29.960Z,70.17
2023-05-04T02:11:32.431Z,69.77
2023-05-04T02:13:34.954Z,69.21
2023-05-04T02:15:37.978Z,69.82
2023-05-04T02:17:40.603Z,69.42
2023-05-04T02:19:42.917Z,70.93
2023-05-04T02:21:45.240Z,70.52
2023-05-04T02:23:47.665Z,70.62
2023-05-04T02:25:50.288Z,70.28
2023-05-04T02:27:52.707Z,70.07
2023-05-04T02:29:55.508Z,69.37
2023-05-04T02:31:58.830Z,69.15
2023-05-04T02:34:02.107Z,69.22
2023-05-04T02:36:06.709Z,69.31
2023-05-04T02:38:09.453Z,69.14
2023-05-04T02:40:13.319Z,69.25
2023-05-04T02:42:16.047Z,69.33
2023-05-04T02:44:18.885Z,69.68
2023-05-04T02:46:21.502Z,69.07
2023-05-04T02:48:25.861Z,68.69
2023-05-04T02:50:29.089Z,69.14
2023-05-04T02:52:31.709Z,68.41
2023-05-04T02:54:35.470Z,67.58
2023-05-04T02:56:38.033Z,67.69
2023-05-04T02:58:40.721Z,68.20
2023-05-04T03:00:44.282Z,67.85
2023-05-04T03:02:47.281Z,68.20
2023-05-04T03:04:49.889Z,68.16
2023-05-04T03:06:52.194Z,68.50
2023-05-04T03:08:54.696Z,67.97
2023-05-04T03:10:57.485Z,67.88
2023-05-04T03:13:04.419Z,68.52
2023-05-04T03:15:08.181Z,69.06
2023-05-04T03:17:10.567Z,68.36
2023-05-04T03:19:13.674Z,68.25
2023-05-04T03:21:15.956Z,68.85
2023-05-04T03:23:19.300Z,68.10
2023-05-04T03:25:21.920Z,67.78
2023-05-04T03:27:24.688Z,68.26
2023-05-04T03:29:27.314Z,68.25
2023-05-04T03:31:31.682Z,68.54
2023-05-04T03:33:34.916Z,68.16
2023-05-04T03:35:37.394Z,68.56
2023-05-04T03:37:40.539Z,68.46
2023-05-04T03:39:43.035Z,68.60
2023-05-04T03:41:46.237Z,68.49
2023-05-04T03:43:49.024Z,68.41
2023-05-04T03:45:52.046Z,68.57
2023-05-04T03:47:57.620Z,68.61
2023-05-04T03:50:01.460Z,68.29
2023-05-04T03:52:04.205Z,69.08
2023-05-04T03:54:06.710Z,69.71
2023-05-04T03:56:09.439Z,69.83
2023-05-04T03:58:12.992Z,70.26
2023-05-04T04:00:16.846Z,70.47
2023-05-04T04:02:25.828Z,70.72
2023-05-04T04:04:28.355Z,70.61
2023-05-04T04:06:31.252Z,70.81
2023-05-04T04:08:34.537Z,70.36
2023-05-04T04:10:37.329Z,71.09
2023-05-04T04:12:40.173Z,70.52
2023-05-04T04:14:42.774Z,70.77
2023-05-04T04:16:45.405Z,71.00
2023-05-04T04:18:49.139Z,70.41
2023-05-04T04:20:52.065Z,70.39
2023-05-04T04:22:54.995Z,70.78
2023-05-04T04:24:57.657Z,70.60
2023-05-04T04:27:00.515Z,70.90
2023-05-04T04:29:04.537Z,70.43
2023-05-04T04:31:06.998Z,70.50
2023-05-04T04:33:09.911Z,70.12
2023-05-04T04:35:12.782Z,69.83
2023-05-04T04:37:15.601Z,69.04
2023-05-04T04:39:18.218Z,69.14
2023-05-04T04:41:20.951Z,69.23
2023-05-04T04:43:23.612Z,68.03
2023-05-04T04:45:26.038Z,68.27
2023-05-04T04:47:28.568Z,67.51
2023-05-04T04:49:31.563Z,66.39
2023-05-04T04:51:34.187Z,65.92
2023-05-04T04:53:36.503Z,66.42
2023-05-04T04:55:38.979Z,65.08
2023-05-04T04:57:41.384Z,64.98
2023-05-04T04:59:44.281Z,64.38
2023-05-04T05:01:46.771Z,63.90
2023-05-04T05:03:50.540Z,63.42
2023-05-04T05:05:53.050Z,62.93
2023-05-04T05:07:55.413Z,62.86
2023-05-04T05:09:58.260Z,61.59
2023-05-04T05:12:01.480Z,61.78
2023-05-04T05:14:04.122Z,61.81
2023-05-04T05:16:07.189Z,60.85
2023-05-04T05:18:10.193Z,60.50
2023-05-04T05:20:13.356Z,60.92
2023-05-04T05:22:16.114Z,60.01
2023-05-04T05:24:18.702Z,59.85
2023-05-04T05:26:20.944Z,58.74
2023-05-04T05:28:23.815Z,58.46
2023-05-04T05:30:28.986Z,57.80
2023-05-04T05:32:31.871Z,57.97
2023-05-04T05:34:39.183Z,57.94
2023-05-04T05:36:41.865Z,56.46
2023-05-04T05:38:44.982Z,56.02
2023-05-04T05:40:49.164Z,55.57
2023-05-04T05:42:52.612Z,55.92
2023-05-04T05:44:55.091Z,55.33
2023-05-04T05:46:57.573Z,55.34
2023-05-04T05:49:00.429Z,55.35
2023-05-04T05:51:04.544Z,54.77
2023-05-04T05:53:07.330Z,55.13
2023-05-04T05:55:10.214Z,54.37
2023-05-04T05:57:13.467Z,53.02
2023-05-04T05:59:16.701Z,53.41
2023-05-04T06:01:19.926Z,53.23
2023-05-04T06:03:22.819Z,52.82
2023-05-04T06:05:25.642Z,52.52
2023-05-04T06:07:28.667Z,51.47
2023-05-04T06:09:31.056Z,51.98
2023-05-04T06:11:33.365Z,51.67
2023-05-04T06:13:36.017Z,51.86
2023-05-04T06:15:38.768Z,50.12
2023-05-04T06:17:41.986Z,50.67
2023-05-04T06:19:47.542Z,49.45
2023-05-04T06:21:51.447Z,49.44
2023-05-04T06:23:54.183Z,48.81
2023-05-04T06:25:56.763Z,49.20
2023-05-04T06:27:59.061Z,49.11
2023-05-04T06:30:01.621Z,48.02
2023-05-04T06:32:04.476Z,47.86
2023-05-04T06:34:07.741Z,47.71
2023-05-04T06:36:10.309Z,46.18
2023-05-04T06:38:12.911Z,46.06
2023-05-04T06:40:16.141Z,45.62
2023-05-04T06:42:18.482Z,45.36
2023-05-04T06:44:23.699Z,44.25
2023-05-04T06:46:26.977Z,44.29
2023-05-04T06:48:30.226Z,43.60
2023-05-04T06:50:33.766Z,44.14
2023-05-04T06:52:39.216Z,43.32
2023-05-04T06:54:41.566Z,42.69
2023-05-04T06:56:44.467Z,43.27
2023-05-04T06:58:47.212Z,41.80
2023-05-04T07:00:49.768Z,42.79
2023-05-04T07:02:55.693Z,42.36
2023-05-04T07:04:58.490Z,41.88
2023-05-04T07:07:00.719Z,41.61
2023-05-04T07:09:03.856Z,40.20
2023-05-04T07:11:06.695Z,41.97
2023-05-04T07:13:09.920Z,42.10
2023-05-04T07:15:12.795Z,40.81
2023-05-04T07:17:15.505Z,41.01
2023-05-04T07:19:17.923Z,37.87
2023-05-04T07:21:27.471Z,39.57
2023-05-04T07:23:31.687Z,39.21
2023-05-04T07:25:35.079Z,39.59
2023-05-04T07:27:38.632Z,39.64
2023-05-04T07:29:42.039Z,37.65
2023-05-04T07:31:45.059Z,34.57
2023-05-04T07:33:48.344Z,35.76
2023-05-04T07:35:51.189Z,34.01
2023-05-04T07:37:54.883Z,33.20
2023-05-04T07:40:00.589Z,31.94
2023-05-04T07:42:04.634Z,33.82
2023-05-04T07:44:08.878Z,35.60
2023-05-04T07:46:11.605Z,31.83
2023-05-04T07:48:14.772Z,31.71
2023-05-04T07:50:17.760Z,32.19
2023-05-04T07:52:20.454Z,32.19
2023-05-04T07:54:23.135Z,32.82
2023-05-04T07:56:25.952Z,30.84
2023-05-04T07:58:28.533Z,31.75
2023-05-04T08:00:31.198Z,31.63
2023-05-04T08:02:33.866Z,32.72
2023-05-04T08:04:37.150Z,34.49
2023-05-04T08:06:40.290Z,33.20
2023-05-04T08:08:44.711Z,33.22
2023-05-04T08:10:47.332Z,31.96
2023-05-04T08:12:49.881Z,31.65
2023-05-04T08:14:52.372Z,32.52
2023-05-04T08:16:55.464Z,33.95
2023-05-04T08:19:00.029Z,33.61
2023-05-04T08:21:02.564Z,33.11
2023-05-04T08:23:05.566Z,30.85
2023-05-04T08:25:10.056Z,32.20
2023-05-04T08:27:15.920Z,31.80
2023-05-04T08:29:20.069Z,29.92
2023-05-04T08:31:22.646Z,30.68
2023-05-04T08:33:25.350Z,29.98
2023-05-04T08:35:29.119Z,32.12
2023-05-04T08:37:32.458Z,31.36
2023-05-04T08:39:35.049Z,30.02
2023-05-04T08:41:43.862Z,29.15
2023-05-04T08:43:47.032Z,30.40
2023-05-04T08:45:56.436Z,29.40
2023-05-04T08:47:59.928Z,29.06
2023-05-04T08:50:03.321Z,31.82
2023-05-04T08:52:09.271Z,30.70
2023-05-04T08:54:12.541Z,28.70
2023-05-04T08:56:16.993Z,29.95
2023-05-04T08:58:22.550Z,31.19
2023-05-04T09:00:26.794Z,29.87
2023-05-04T09:02:30.049Z,29.38
2023-05-04T09:04:33.247Z,29.21
2023-05-04T09:06:36.397Z,28.49
2023-05-04T09:08:38.820Z,29.41
2023-05-04T09:10:41.443Z,29.51
2023-05-04T09:12:43.849Z,30.34
2023-05-04T09:14:47.037Z,27.27
2023-05-04T09:16:50.058Z,29.04
2023-05-04T09:18:52.959Z,30.12
2023-05-04T09:20:56.968Z,31.24
2023-05-04T09:23:10.379Z,31.31
2023-05-04T09:25:14.418Z,28.45
2023-05-04T09:27:20.117Z,30.60
2023-05-04T09:29:25.848Z,31.66
2023-05-04T09:31:29.321Z,31.58
2023-05-04T09:33:32.392Z,28.57
2023-05-04T09:35:36.023Z,31.08
2023-05-04T09:37:48.840Z,30.07
2023-05-04T09:39:59.711Z,29.52
2023-05-04T09:42:02.399Z,29.62
2023-05-04T09:44:05.489Z,30.25
2023-05-04T09:46:09.608Z,30.81
2023-05-04T09:48:27.419Z,29.60
2023-05-04T09:50:33.763Z,29.77
2023-05-04T09:52:37.831Z,27.80
2023-05-04T09:54:44.892Z,30.20
2023-05-04T09:56:52.708Z,29.18
2023-05-04T09:58:59.402Z,29.37
2023-05-04T10:01:02.269Z,26.73
2023-05-04T10:03:06.884Z,28.38
2023-05-04T10:05:14.161Z,27.72
2023-05-04T10:07:17.659Z,28.88
2023-05-04T10:09:20.794Z,30.02
2023-05-04T10:11:26.089Z,28.53
2023-05-04T10:13:29.463Z,28.70
2023-05-04T10:15:33.349Z,30.57
2023-05-04T10:17:59.621Z,27.00
2023-05-04T10:20:33.165Z,28.87
2023-05-04T10:23:01.176Z,27.65
2023-05-04T10:25:28.609Z,29.31
2023-05-04T10:27:46.072Z,28.78
2023-05-04T10:29:50.988Z,28.51
2023-05-04T10:31:53.825Z,28.71
2023-05-04T10:33:57.228Z,28.42
2023-05-04T10:35:59.755Z,27.71
2023-05-04T10:38:04.826Z,27.38
2023-05-04T10:40:11.162Z,27.30
2023-05-04T10:42:13.641Z,27.24
2023-05-04T10:44:17.023Z,26.17
2023-05-04T10:46:23.695Z,25.53
2023-05-04T10:48:36.310Z,27.04
2023-05-04T10:50:45.724Z,26.05
2023-05-04T10:52:52.290Z,27.00
2023-05-04T10:55:02.887Z,26.90
2023-05-04T10:57:11.455Z,28.29
2023-05-04T10:59:15.916Z,29.03
2023-05-04T11:01:19.858Z,25.45
2023-05-04T11:03:25.369Z,27.40
2023-05-04T11:05:28.528Z,26.65
2023-05-04T11:07:38.721Z,28.11
2023-05-04T11:09:44.671Z,29.17
2023-05-04T11:11:47.566Z,28.08
2023-05-04T11:13:50.291Z,26.73
2023-05-04T11:15:53.168Z,26.49
2023-05-04T11:17:55.973Z,27.89
2023-05-04T11:19:58.927Z,27.83
2023-05-04T11:22:02.902Z,25.21
2023-05-04T11:24:05.885Z,26.79
2023-05-04T11:26:10.163Z,26.45
2023-05-04T11:28:14.733Z,25.20
2023-05-04T11:30:17.576Z,26.45
2023-05-04T11:32:20.305Z,28.68
2023-05-04T11:34:23.195Z,26.62
2023-05-04T11:36:26.617Z,26.76
2023-05-04T11:38:29.340Z,26.16
2023-05-04T11:40:31.788Z,26.69
2023-05-04T11:42:34.360Z,25.81
2023-05-04T11:44:38.791Z,26.84
2023-05-04T11:46:41.317Z,28.71
2023-05-04T11:48:44.621Z,28.18
2023-05-04T11:50:48.433Z,28.67
2023-05-04T11:52:51.692Z,27.15
2023-05-04T11:54:58.034Z,26.11
2023-05-04T11:57:03.370Z,26.10
2023-05-04T11:59:11.206Z,26.53
2023-05-04T12:01:14.536Z,26.13
2023-05-04T12:03:53.389Z,25.48
2023-05-04T12:05:57.461Z,26.52
2023-05-04T12:08:00.880Z,24.87
2023-05-04T12:10:03.613Z,25.48
2023-05-04T12:12:06.622Z,27.42
2023-05-04T12:14:12.332Z,26.56
2023-05-04T12:16:20.615Z,27.96
2023-05-04T12:18:29.950Z,28.42
2023-05-04T12:20:33.914Z,28.25
2023-05-04T12:22:36.995Z,27.81
2023-05-04T12:24:40.669Z,27.72
2023-05-04T12:26:43.613Z,25.50
2023-05-04T12:28:47.722Z,26.29
2023-05-04T12:30:50.550Z,26.65
2023-05-04T12:32:53.538Z,23.70
2023-05-04T12:34:55.831Z,25.75
2023-05-04T12:36:58.290Z,24.88
2023-05-04T12:39:01.483Z,26.15
2023-05-04T12:41:05.262Z,24.92
2023-05-04T12:43:07.631Z,23.51
2023-05-04T12:45:11.394Z,25.93
2023-05-04T12:47:15.924Z,24.59
2023-05-04T12:49:18.537Z,24.47
2023-05-04T12:51:20.939Z,25.70
2023-05-04T12:53:26.222Z,25.98
2023-05-04T12:55:29.328Z,24.91
2023-05-04T12:57:32.135Z,25.74
2023-05-04T12:59:34.819Z,24.60
2023-05-04T13:01:37.330Z,25.04
2023-05-04T13:03:39.907Z,24.33
2023-05-04T13:05:43.457Z,25.77
2023-05-04T13:07:45.962Z,23.31
2023-05-04T13:09:48.634Z,24.21
2023-05-04T13:11:51.146Z,25.63
2023-05-04T13:13:53.845Z,25.33
2023-05-04T13:15:57.559Z,24.45
2023-05-04T13:18:00.845Z,24.28
2023-05-04T13:20:06.609Z,25.90
2023-05-04T13:22:09.299Z,25.26
2023-05-04T13:24:13.591Z,26.39
2023-05-04T13:26:17.249Z,28.57
2023-05-04T13:28:19.760Z,25.72
2023-05-04T13:30:22.727Z,25.81
2023-05-04T13:32:28.048Z,26.20
2023-05-04T13:34:30.471Z,24.89
2023-05-04T13:36:33.408Z,25.38
2023-05-04T13:38:35.831Z,24.61
2023-05-04T13:40:38.758Z,25.69
2023-05-04T13:42:41.081Z,25.15
2023-05-04T13:44:48.854Z,24.74
2023-05-04T13:46:51.622Z,23.47
2023-05-04T13:48:56.391Z,24.63
2023-05-04T13:50:59.612Z,25.24
2023-05-04T13:53:03.019Z,23.57
2023-05-04T13:55:06.141Z,24.99
2023-05-04T13:57:08.698Z,24.33
2023-05-04T13:59:11.819Z,23.67
2023-05-04T14:01:14.447Z,25.41
2023-05-04T14:03:17.290Z,24.56
2023-05-04T14:05:21.465Z,24.85
2023-05-04T14:07:24.017Z,24.97
2023-05-04T14:09:27.004Z,24.84
2023-05-04T14:11:30.155Z,24.83
2023-05-04T14:13:32.926Z,25.20
2023-05-04T14:15:35.779Z,25.34
2023-05-04T14:17:40.069Z,25.74
2023-05-04T14:19:42.605Z,23.27
2023-05-04T14:21:45.370Z,24.85
2023-05-04T14:23:47.661Z,25.02
2023-05-04T14:25:52.739Z,26.12
2023-05-04T14:27:55.576Z,24.73
2023-05-04T14:29:58.623Z,24.85
2023-05-04T14:32:01.883Z,25.92
2023-05-04T14:34:04.284Z,25.58
2023-05-04T14:36:08.123Z,24.10
2023-05-04T14:38:11.367Z,25.10
2023-05-04T14:40:14.717Z,25.04
2023-05-04T14:42:17.558Z,25.97
2023-05-04T14:44:23.203Z,25.29
2023-05-04T14:46:26.341Z,25.11
2023-05-04T14:48:29.631Z,24.94
2023-05-04T14:50:32.341Z,25.20
2023-05-04T14:52:35.362Z,25.30
2023-05-04T14:54:37.945Z,25.70
2023-05-04T14:56:41.464Z,24.89
2023-05-04T14:58:44.866Z,25.79
2023-05-04T15:00:47.622Z,26.14
2023-05-04T15:02:50.731Z,25.46
2023-05-04T15:04:53.492Z,26.34
2023-05-04T15:06:56.820Z,26.15
2023-05-04T15:09:00.106Z,25.86
2023-05-04T15:11:02.529Z,25.21
2023-05-04T15:13:05.568Z,24.45
2023-05-04T15:15:09.087Z,26.29
2023-05-04T15:17:12.204Z,26.17
2023-05-04T15:19:15.246Z,25.83
2023-05-04T15:21:17.939Z,25.81
2023-05-04T15:23:21.235Z,25.81
2023-05-04T15:25:25.685Z,26.10
2023-05-04T15:27:28.618Z,25.76
2023-05-04T15:29:32.111Z,26.02
2023-05-04T15:31:34.536Z,25.72
2023-05-04T15:33:37.201Z,26.20
2023-05-04T15:35:39.700Z,26.43
2023-05-04T15:37:42.041Z,26.83
2023-05-04T15:39:44.739Z,26.88
2023-05-04T15:41:47.906Z,27.37
2023-05-04T15:43:50.979Z,26.92
2023-05-04T15:45:53.985Z,26.86
2023-05-04T15:47:58.988Z,26.28
2023-05-04T15:50:01.473Z,26.72
2023-05-04T15:52:04.306Z,26.51
2023-05-04T15:54:06.747Z,26.79
2023-05-04T15:56:09.505Z,27.87
2023-05-04T15:58:12.621Z,27.81
2023-05-04T16:00:17.205Z,28.22
2023-05-04T16:02:19.962Z,28.01
2023-05-04T16:04:23.109Z,28.07
2023-05-04T16:06:28.604Z,27.81
2023-05-04T16:08:30.993Z,27.87
2023-05-04T16:10:33.891Z,27.77
2023-05-04T16:12:36.918Z,28.40
2023-05-04T16:14:39.801Z,27.39
2023-05-04T16:16:42.991Z,28.08
2023-05-04T16:18:45.439Z,28.90
2023-05-04T16:20:49.072Z,28.47
2023-05-04T16:22:51.992Z,27.38
2023-05-04T16:24:54.296Z,27.38
2023-05-04T16:26:56.810Z,29.08
2023-05-04T16:28:59.369Z,29.26
2023-05-04T16:31:05.676Z,30.71
2023-05-04T16:33:09.112Z,31.52
2023-05-04T16:35:12.077Z,29.75
2023-05-04T16:37:15.542Z,29.20
2023-05-04T16:39:19.590Z,30.63
2023-05-04T16:41:23.448Z,31.59
2023-05-04T16:43:25.835Z,31.32
2023-05-04T16:45:31.980Z,32.32
2023-05-04T16:47:36.170Z,32.17
2023-05-04T16:49:39.161Z,32.55
2023-05-04T16:51:41.922Z,33.26
2023-05-04T16:53:45.245Z,33.35
2023-05-04T16:55:48.498Z,34.15
2023-05-04T16:57:51.055Z,34.71
2023-05-04T16:59:53.938Z,35.05
2023-05-04T17:01:57.803Z,35.21
2023-05-04T17:04:00.860Z,35.25
2023-05-04T17:06:04.304Z,36.15
2023-05-04T17:08:06.923Z,36.51
2023-05-04T17:10:10.329Z,36.27
2023-05-04T17:12:13.066Z,36.62
2023-05-04T17:14:15.456Z,36.93
2023-05-04T17:16:18.282Z,37.00
2023-05-04T17:18:20.669Z,37.86
2023-05-04T17:20:25.436Z,37.91
2023-05-04T17:22:28.355Z,37.30
2023-05-04T17:24:30.976Z,36.79
2023-05-04T17:26:33.562Z,36.56
2023-05-04T17:28:37.028Z,37.28
2023-05-04T17:30:41.205Z,37.53
2023-05-04T17:32:43.696Z,37.72
2023-05-04T17:34:46.201Z,37.65
2023-05-04T17:36:48.671Z,38.05
2023-05-04T17:38:52.007Z,37.87
2023-05-04T17:40:54.596Z,37.85
2023-05-04T17:43:01.362Z,37.88
2023-05-04T17:45:04.162Z,38.53
2023-05-04T17:47:06.634Z,38.62
2023-05-04T17:49:09.356Z,39.11
2023-05-04T17:51:14.698Z,38.80
2023-05-04T17:53:17.457Z,38.88
2023-05-04T17:55:20.841Z,39.36
2023-05-04T17:57:23.336Z,39.28
2023-05-04T17:59:25.979Z,39.67
2023-05-04T18:01:29.536Z,40.56
2023-05-04T18:03:32.311Z,41.25
2023-05-04T18:05:35.134Z,41.22
2023-05-04T18:07:37.450Z,40.92
2023-05-04T18:09:40.917Z,41.11
2023-05-04T18:11:43.405Z,40.93
2023-05-04T18:13:46.041Z,41.68
2023-05-04T18:15:48.907Z,41.32
2023-05-04T18:17:51.526Z,41.65
2023-05-04T18:19:53.836Z,41.84
2023-05-04T18:21:56.129Z,42.09
2023-05-04T18:23:58.860Z,42.60
2023-05-04T18:26:01.519Z,42.74
2023-05-04T18:28:04.029Z,42.89
2023-05-04T18:30:08.708Z,43.89
2023-05-04T18:32:12.053Z,43.93
2023-05-04T18:34:15.878Z,45.20
2023-05-04T18:36:19.975Z,45.42
2023-05-04T18:38:22.414Z,45.78
2023-05-04T18:40:24.925Z,45.23
2023-05-04T18:42:27.778Z,45.30
2023-05-04T18:44:30.415Z,46.41
2023-05-04T18:46:32.817Z,46.33
2023-05-04T18:48:35.405Z,46.91
2023-05-04T18:50:38.857Z,46.34
2023-05-04T18:52:41.435Z,47.09
2023-05-04T18:54:43.817Z,47.22
2023-05-04T18:56:46.490Z,48.05
2023-05-04T18:58:49.348Z,49.03
2023-05-04T19:00:52.092Z,51.80
2023-05-04T19:02:54.723Z,50.23
2023-05-04T19:04:57.242Z,51.74
2023-05-04T19:07:00.028Z,51.68
2023-05-04T19:09:02.749Z,51.59
2023-05-04T19:11:06.253Z,50.12
2023-05-04T19:13:17.695Z,49.72
2023-05-04T19:15:24.429Z,49.92
2023-05-04T19:17:27.033Z,50.47
2023-05-04T19:19:29.919Z,49.54
2023-05-04T19:21:32.310Z,49.78
2023-05-04T19:23:34.610Z,49.34
2023-05-04T19:25:37.079Z,49.32
2023-05-04T19:27:40.030Z,49.11
2023-05-04T19:29:42.627Z,49.48
2023-05-04T19:31:46.085Z,49.93
2023-05-04T19:33:50.081Z,49.69
2023-05-04T19:35:52.790Z,50.88
2023-05-04T19:37:55.681Z,51.21
2023-05-04T19:39:58.422Z,51.39
2023-05-04T19:42:02.795Z,51.46
2023-05-04T19:44:10.365Z,51.29
2023-05-04T19:46:13.281Z,51.69
2023-05-04T19:48:17.723Z,50.94
2023-05-04T19:50:20.372Z,50.82
2023-05-04T19:52:23.015Z,50.84
2023-05-04T19:54:25.537Z,51.73
2023-05-04T19:56:28.058Z,51.23
2023-05-04T19:58:31.288Z,51.10
2023-05-04T20:00:33.796Z,51.57
2023-05-04T20:02:38.424Z,51.98
2023-05-04T20:04:40.858Z,52.07
2023-05-04T20:06:43.748Z,51.92
2023-05-04T20:08:46.776Z,51.38
2023-05-04T20:10:49.832Z,50.95
2023-05-04T20:12:52.296Z,51.15
2023-05-04T20:14:55.130Z,51.38
2023-05-04T20:16:58.064Z,51.71
2023-05-04T20:19:03.545Z,52.24
2023-05-04T20:21:06.750Z,52.04
2023-05-04T20:23:09.723Z,51.29
2023-05-04T20:25:13.641Z,52.38
2023-05-04T20:27:16.564Z,52.99
2023-05-04T20:29:19.004Z,53.02
2023-05-04T20:31:21.833Z,51.97
2023-05-04T20:33:24.448Z,52.08
2023-05-04T20:35:26.852Z,52.33
2023-05-04T20:37:29.934Z,52.14
2023-05-04T20:39:32.741Z,52.06
2023-05-04T20:41:35.068Z,52.67
2023-05-04T20:43:37.901Z,52.52
2023-05-04T20:45:40.352Z,52.75
2023-05-04T20:47:42.935Z,53.03
2023-05-04T20:49:45.354Z,53.28
2023-05-04T20:51:47.792Z,53.70
2023-05-04T20:53:50.276Z,54.24
2023-05-04T20:55:52.807Z,54.70
2023-05-04T20:57:55.694Z,54.76
2023-05-04T20:59:58.189Z,55.20
2023-05-04T21:02:00.689Z,55.10
2023-05-04T21:04:03.459Z,56.00
2023-05-04T21:06:06.302Z,55.92
2023-05-04T21:08:09.538Z,58.10
2023-05-04T21:10:11.954Z,58.46
2023-05-04T21:12:14.229Z,57.82
2023-05-04T21:14:17.299Z,57.83
2023-05-04T21:16:20.601Z,57.75
2023-05-04T21:18:23.097Z,56.83
2023-05-04T21:20:25.517Z,57.86
2023-05-04T21:22:28.327Z,57.63
2023-05-04T21:24:32.362Z,58.96
2023-05-04T21:26:36.060Z,57.73
2023-05-04T21:28:38.636Z,58.29
2023-05-04T21:30:42.418Z,58.25
2023-05-04T21:32:44.722Z,57.56
2023-05-04T21:34:52.826Z,58.08
2023-05-04T21:36:55.409Z,58.03
2023-05-04T21:38:57.851Z,57.36
2023-05-04T21:41:16.088Z,57.31
2023-05-04T21:43:18.686Z,58.34
2023-05-04T21:45:21.558Z,58.03
2023-05-04T21:47:25.195Z,58.55
2023-05-04T21:49:28.349Z,57.83
2023-05-04T21:51:32.023Z,58.11
2023-05-04T21:53:34.662Z,58.57
2023-05-04T21:55:36.952Z,58.07
2023-05-04T21:57:39.556Z,59.11
2023-05-04T21:59:41.979Z,60.45
2023-05-04T22:01:44.329Z,61.18
2023-05-04T22:03:46.925Z,60.63
2023-05-04T22:05:58.167Z,61.33
2023-05-04T22:08:04.062Z,59.91
2023-05-04T22:10:07.695Z,61.14
2023-05-04T22:12:10.698Z,61.23
2023-05-04T22:14:13.296Z,62.00
2023-05-04T22:16:16.135Z,61.50
2023-05-04T22:18:19.041Z,61.12
2023-05-04T22:20:23.570Z,61.12
2023-05-04T22:22:25.979Z,60.54
2023-05-04T22:24:28.454Z,60.66
2023-05-04T22:26:30.965Z,59.97
2023-05-04T22:28:33.418Z,61.50
2023-05-04T22:30:36.137Z,61.15
2023-05-04T22:32:38.754Z,61.05
2023-05-04T22:34:41.751Z,61.41
2023-05-04T22:36:44.008Z,60.80
2023-05-04T22:38:46.797Z,60.47
2023-05-04T22:40:50.377Z,61.05
2023-05-04T22:42:52.946Z,61.14
2023-05-04T22:44:55.100Z,62.35
2023-05-04T22:46:58.011Z,62.63
2023-05-04T22:49:00.397Z,61.67
2023-05-04T22:51:04.209Z,62.55
2023-05-04T22:53:07.257Z,61.97
2023-05-04T22:55:09.835Z,62.08
2023-05-04T22:57:12.396Z,61.46
2023-05-04T22:59:14.781Z,60.76
2023-05-04T23:01:18.481Z,61.17
2023-05-04T23:03:21.006Z,61.46
2023-05-04T23:05:23.614Z,62.49
2023-05-04T23:07:26.363Z,63.36
2023-05-04T23:09:29.448Z,64.20
2023-05-04T23:11:32.085Z,64.66
2023-05-04T23:13:34.581Z,65.87
2023-05-04T23:15:37.065Z,66.29
2023-05-04T23:17:40.274Z,66.04
2023-05-04T23:19:42.532Z,66.10
2023-05-04T23:21:45.448Z,65.55
2023-05-04T23:23:50.066Z,66.08
2023-05-04T23:25:52.751Z,66.13
2023-05-04T23:27:55.022Z,65.47
2023-05-04T23:29:57.357Z,65.90
2023-05-04T23:32:00.025Z,65.63
2023-05-04T23:34:02.569Z,65.61
2023-05-04T23:36:05.025Z,65.96
2023-05-04T23:38:07.561Z,65.42
2023-05-04T23:40:10.843Z,65.58
2023-05-04T23:42:13.429Z,65.24
2023-05-04T23:44:16.901Z,64.34
2023-05-04T23:46:19.391Z,63.96
2023-05-04T23:48:21.576Z,63.47
2023-05-04T23:50:24.280Z,62.75
2023-05-04T23:52:26.575Z,63.12
2023-05-04T23:54:28.987Z,63.00
2023-05-04T23:56:32.548Z,62.00
2023-05-04T23:58:35.789Z,63.69
